Resúmen de la Carrera (Circuito: Slovakiaring | Temp: 85 | C.: 17 | Grupo: Pro - 4)

Temp:  C.:

Seleccionar otro grupo:

Pos Progreso Neumáticos País Nombre del Manager Tiempo de carrera Vueltas Paradas en pit Mejor vuelta Velocidad promedio Mejor tiempo en pit
01. Sin cambios ±0 Hancock   Kristoffer Johnsson 1h30:32.578 53 3 1:38.458 208.01km/h 17.734s
02. +2 +2 Yokomama   Bora Janić + 38.600 53 2 1:40.190 206.54km/h 20.751s
03. +2 +2 Avonn   Henri Dormann + 46.238 53 2 1:40.397 206.26km/h 18.629s
04. +3 +3 Yokomama   Kristjan Raamann + 1:05.680 53 2 1:40.226 205.53km/h 19.521s
05. -2 -2 Dunnolop   Cristian Cattaneo + 1:05.735 53 3 1:39.159 205.52km/h 21.279s
06. -4 -4 Badyear   David Antonio Bovolon + 1:12.350 53 2 1:41.037 205.28km/h 17.290s
07. +7 +7 Yokomama   James Hitchen + 1:23.272 53 2 1:40.575 204.87km/h 16.414s
08. -2 -2 Avonn   Mindaugas Miltinis + 1:28.726 53 2 1:40.353 204.67km/h 21.860s
09. +21 +21 Dunnolop   Alejandro Hernández + 1:49.295 52 1 1:41.732 203.91km/h 21.172s
10. -2 -2 Dunnolop   Madars Zvaigzne + 1:52.764 52 2 1:41.489 203.78km/h 20.677s
11. +2 +2 Yokomama   Bartek Piotr + 1:57.593 52 2 1:41.890 203.60km/h 21.523s
12. +15 +15 Avonn   Richard Kaščák + 2:13.267 52 2 1:40.321 203.03km/h 21.486s
13. +7 +7 Yokomama   Juan Gonzalez + 2:34.325 52 2 1:41.578 202.27km/h 19.901s
14. +18 +18 Avonn   Fabián Ré + 2:42.314 52 2 1:42.361 201.98km/h 21.303s
15. +10 +10 Yokomama   Iliyan Iliev + 2:54.174 52 2 1:42.787 201.55km/h 17.968s
16. -4 -4 Badyear   Alessandro Brigido + 3:02.730 52 2 1:42.141 201.24km/h 23.696s
17. +7 +7 Yokomama   Robert Horvath + 3:28.387 51 2 1:41.972 200.33km/h 21.867s
18. Sin cambios ±0 Yokomama   Ramón López + 3:35.310 51 2 1:43.256 200.08km/h 20.869s
19. +12 +12 Pipirelli   Adrian Summers + 3:43.050 51 2 1:43.525 199.81km/h 20.398s
20. +3 +3 Yokomama   Mussulin Junior + 3:54.926 51 3 1:42.958 199.39km/h 20.731s
21. +12 +12 Pipirelli   Timo Heino + 3:55.202 51 2 1:43.557 199.38km/h 26.485s
22. -13 -13 Badyear   Kristina Ivanova + 4:25.757 51 3 1:42.371 198.31km/h 18.553s
23. -1 -1 Badyear   Antonio Adolpho Pereira + 4:31.197 51 2 1:43.496 198.12km/h 17.306s
24. -5 -5 Yokomama   Philippe Taffonneau + 4:40.723 51 2 1:43.572 197.79km/h 19.104s
25. -14 -14 Dunnolop   Luis Gustavo + 5:10.114 50 3 1:43.319 196.78km/h 17.476s
26. +9 +9 Avonn   Paweł Parszuto + 5:15.857 50 2 1:44.655 196.58km/h 21.942s
27. -17 -17 Avonn   Marco Bergoglio + 5:16.701 50 2 1:44.085 196.55km/h 23.662s
28. -11 -11 Yokomama   Patrick Gonzales + 5:40.022 50 2 1:43.895 195.76km/h 18.998s
29. -14 -14 Contimental   Casey Stoner + 5:40.722 50 5 1:40.017 195.74km/h 17.328s
30. +6 +6 Contimental   Plamen Iliev + 6:30.789 50 3 1:43.965 194.05km/h 17.483s
31. +3 +3 Yokomama   Mike Kreisz + 6:38.912 50 3 1:44.776 193.78km/h 21.796s
32. -11 -11 Yokomama   Enrico Cerbaro Problemas técnicos 48 3 1:42.100 187.85km/h 22.835s
Sin finalizar
33. -17 -17 Yokomama   Patrick Libaros Problemas técnicos 45 2 1:43.219    20.492s
34. -8 -8 Yokomama   Timo Korpela Problemas técnicos 43 3 1:41.884    20.515s
35. -7 -7 Contimental   Vova Oknov Problemas técnicos 22 1 1:44.729    24.722s
36. -7 -7 Avonn   Lenon Nascimento Problemas técnicos 20 0 1:44.479    -
37. Sin cambios ±0 Pipirelli   Dmitrij Polikarpov Problemas técnicos 13 0 1:47.506    -